Time;durP1;ratioP1;P1;durP2;ratioP2;P2;SDS_P1;SDS_P2;PMS_P1;PMS_P2;Temp;Humidity;BMP_temperature;BMP_pressure;BME280_temperature;BME280_humidity;BME280_pressure;Samples;Min_cycle;Max_cycle;Signal;HPM_P1;HPM_P2
2021/08/12 00:01:38;;;;;;;4.80;4.32;;;;;;;;;;5081876;28;20017;-81
2021/08/12 00:04:04;;;;;;;5.18;3.80;;;;;;;;;;5081114;28;20302;-81
2021/08/12 00:06:30;;;;;;;4.90;4.40;;;;;;;;;;5079204;28;20032;-81
2021/08/12 00:08:56;;;;;;;5.35;4.65;;;;;;;;;;5080817;28;20024;-81
2021/08/12 00:11:22;;;;;;;7.72;5.00;;;;;;;;;;5066389;28;20071;-81
2021/08/12 00:13:51;;;;;;;6.03;4.97;;;;;;;;;;5060213;28;20093;-81
2021/08/12 00:16:17;;;;;;;8.82;5.80;;;;;;;;;;5060640;28;20021;-80
2021/08/12 00:18:43;;;;;;;10.98;5.75;;;;;;;;;;5059301;28;20093;-80
2021/08/12 00:21:09;;;;;;;9.23;5.93;;;;;;;;;;5061374;28;20146;-81
2021/08/12 00:23:35;;;;;;;7.13;5.03;;;;;;;;;;5059558;28;20116;-82
2021/08/12 00:26:01;;;;;;;5.82;5.22;;;;;;;;;;5061262;28;20025;-81
2021/08/12 00:28:27;;;;;;;7.43;5.40;;;;;;;;;;5060472;28;20103;-81
2021/08/12 00:30:53;;;;;;;5.75;5.07;;;;;;;;;;5061357;28;20025;-81
2021/08/12 00:33:20;;;;;;;6.35;4.20;;;;;;;;;;5065409;28;20029;-80
2021/08/12 00:35:46;;;;;;;6.68;5.15;;;;;;;;;;5091524;28;20005;-80
2021/08/12 00:38:12;;;;;;;5.60;4.93;;;;;;;;;;5092584;28;20128;-80
2021/08/12 00:40:38;;;;;;;5.85;5.00;;;;;;;;;;5084329;28;20041;-80
2021/08/12 00:43:04;;;;;;;5.25;4.45;;;;;;;;;;5075621;28;20120;-81
2021/08/12 00:45:30;;;;;;;6.50;4.68;;;;;;;;;;5066546;28;20025;-82
2021/08/12 00:47:56;;;;;;;4.38;3.80;;;;;;;;;;5062905;28;20021;-82
2021/08/12 00:50:22;;;;;;;5.22;4.32;;;;;;;;;;5062807;28;20028;-82
2021/08/12 00:52:48;;;;;;;4.95;4.20;;;;;;;;;;5062116;28;20080;-81
2021/08/12 00:55:15;;;;;;;4.72;4.20;;;;;;;;;;5073065;28;20454;-80
2021/08/12 00:57:41;;;;;;;5.78;4.55;;;;;;;;;;5083648;28;20032;-80
2021/08/12 01:00:08;;;;;;;4.22;3.80;;;;;;;;;;5087226;28;20036;-80
2021/08/12 01:02:34;;;;;;;5.20;4.07;;;;;;;;;;5092473;28;20033;-81
2021/08/12 01:05:00;;;;;;;5.32;4.50;;;;;;;;;;5091563;28;20043;-80
2021/08/12 01:07:26;;;;;;;5.93;3.85;;;;;;;;;;5089962;28;20089;-81
2021/08/12 01:10:01;;;;;;;4.97;4.03;;;;;;;;;;5078719;28;20021;-80
2021/08/12 01:12:33;;;;;;;4.47;4.07;;;;;;;;;;5059996;28;20069;-81
2021/08/12 01:15:09;;;;;;;5.53;4.03;;;;;;;;;;5062437;28;20037;-81
2021/08/12 01:17:39;;;;;;;5.63;4.40;;;;;;;;;;5061827;28;20083;-81
2021/08/12 01:20:14;;;;;;;6.82;4.68;;;;;;;;;;5060502;28;20020;-81
2021/08/12 01:22:42;;;;;;;5.20;4.70;;;;;;;;;;5075179;28;20162;-82
2021/08/12 01:25:10;;;;;;;4.82;4.30;;;;;;;;;;5078784;28;20462;-81
2021/08/12 01:27:37;;;;;;;5.35;4.68;;;;;;;;;;5080505;28;20069;-81
2021/08/12 01:30:07;;;;;;;6.00;4.82;;;;;;;;;;5077993;28;20020;-81
2021/08/12 01:32:53;;;;;;;6.28;5.20;;;;;;;;;;5069051;28;20029;-81
2021/08/12 01:35:20;;;;;;;8.07;6.07;;;;;;;;;;5059276;28;20037;-82
2021/08/12 01:37:51;;;;;;;7.53;6.25;;;;;;;;;;5061390;28;20018;-81
2021/08/12 01:40:19;;;;;;;9.30;7.47;;;;;;;;;;5065917;28;20029;-81
2021/08/12 01:42:46;;;;;;;8.73;6.72;;;;;;;;;;5065596;28;20037;-80
2021/08/12 01:45:14;;;;;;;8.23;5.95;;;;;;;;;;5064442;28;20033;-81
2021/08/12 01:47:41;;;;;;;7.03;6.32;;;;;;;;;;5073169;28;20047;-80
2021/08/12 01:50:07;;;;;;;8.52;7.55;;;;;;;;;;5076380;28;20017;-80
2021/08/12 01:52:35;;;;;;;9.13;7.13;;;;;;;;;;5078286;28;20037;-80
2021/08/12 01:55:02;;;;;;;8.02;7.03;;;;;;;;;;5091751;28;20051;-81
2021/08/12 01:57:28;;;;;;;10.95;7.80;;;;;;;;;;5092634;28;20031;-80
2021/08/12 01:59:54;;;;;;;9.25;8.23;;;;;;;;;;5093615;28;20025;-82
2021/08/12 02:02:21;;;;;;;10.82;7.75;;;;;;;;;;5085993;28;20445;-81
2021/08/12 02:04:54;;;;;;;9.32;7.53;;;;;;;;;;5089103;28;20025;-81
2021/08/12 02:07:20;;;;;;;9.82;7.40;;;;;;;;;;5083890;28;20035;-81
2021/08/12 02:09:46;;;;;;;7.65;6.80;;;;;;;;;;5082397;28;20072;-81
2021/08/12 02:12:12;;;;;;;8.38;7.30;;;;;;;;;;5075223;28;20028;-81
2021/08/12 02:14:39;;;;;;;7.32;6.05;;;;;;;;;;5064103;28;20028;-81
2021/08/12 02:17:05;;;;;;;7.38;6.55;;;;;;;;;;5070160;28;20009;-80
2021/08/12 02:19:32;;;;;;;7.28;6.32;;;;;;;;;;5077479;28;20117;-80
2021/08/12 02:22:13;;;;;;;8.48;7.28;;;;;;;;;;5074440;28;20056;-80
2021/08/12 02:24:45;;;;;;;7.05;6.35;;;;;;;;;;5065108;28;20398;-81
2021/08/12 02:27:14;;;;;;;8.93;7.60;;;;;;;;;;5081967;28;20033;-82
2021/08/12 02:29:40;;;;;;;8.45;7.15;;;;;;;;;;5084844;28;20025;-82
2021/08/12 02:32:08;;;;;;;11.05;7.03;;;;;;;;;;5082774;28;20520;-81
2021/08/12 02:34:36;;;;;;;9.65;7.43;;;;;;;;;;5085066;28;20080;-82
2021/08/12 02:37:04;;;;;;;8.63;7.10;;;;;;;;;;5082129;28;20039;-82
2021/08/12 02:39:32;;;;;;;7.72;6.72;;;;;;;;;;5083142;28;20046;-82
2021/08/12 02:42:00;;;;;;;7.97;7.18;;;;;;;;;;5061705;28;20056;-81
2021/08/12 02:44:26;;;;;;;7.70;6.82;;;;;;;;;;5063035;28;20034;-81
2021/08/12 02:46:53;;;;;;;8.57;6.70;;;;;;;;;;5061032;28;20036;-81
2021/08/12 02:49:19;;;;;;;8.15;7.20;;;;;;;;;;5062578;28;20024;-82
2021/08/12 02:51:46;;;;;;;7.95;6.97;;;;;;;;;;5061008;28;20025;-82
2021/08/12 02:54:12;;;;;;;9.45;6.55;;;;;;;;;;5061624;28;20113;-80
2021/08/12 02:56:39;;;;;;;6.78;5.90;;;;;;;;;;5060409;28;20017;-80
2021/08/12 02:59:05;;;;;;;7.22;6.13;;;;;;;;;;5062476;28;20025;-80
2021/08/12 03:01:34;;;;;;;8.30;6.35;;;;;;;;;;5062138;28;20021;-81
2021/08/12 03:04:00;;;;;;;7.30;6.03;;;;;;;;;;5061968;28;20024;-79
2021/08/12 03:06:27;;;;;;;7.32;6.60;;;;;;;;;;5061866;28;20028;-81
2021/08/12 03:08:53;;;;;;;7.05;5.95;;;;;;;;;;5062169;28;20055;-81
2021/08/12 03:11:20;;;;;;;7.10;6.40;;;;;;;;;;5082325;28;20020;-82
2021/08/12 03:13:48;;;;;;;7.13;6.43;;;;;;;;;;5080634;28;20075;-81
2021/08/12 03:16:14;;;;;;;5.95;5.45;;;;;;;;;;5081168;28;20089;-82
2021/08/12 03:18:40;;;;;;;6.40;5.60;;;;;;;;;;5080897;28;20024;-82
2021/08/12 03:21:06;;;;;;;5.90;5.30;;;;;;;;;;5080031;28;20028;-82
2021/08/12 03:23:32;;;;;;;5.88;5.18;;;;;;;;;;5081272;28;20043;-82
2021/08/12 03:25:58;;;;;;;6.47;5.68;;;;;;;;;;5067510;28;20036;-80
2021/08/12 03:28:24;;;;;;;5.65;5.15;;;;;;;;;;5061464;28;20056;-81
2021/08/12 03:30:51;;;;;;;5.68;5.10;;;;;;;;;;5072333;28;20059;-81
2021/08/12 03:33:17;;;;;;;6.63;5.75;;;;;;;;;;5080484;28;20020;-81
2021/08/12 03:35:43;;;;;;;6.70;6.00;;;;;;;;;;5080028;28;20067;-81
2021/08/12 03:38:09;;;;;;;7.30;5.97;;;;;;;;;;5081487;28;20044;-81
2021/08/12 03:40:35;;;;;;;9.30;6.65;;;;;;;;;;5074914;28;20035;-82
2021/08/12 03:43:01;;;;;;;7.05;6.28;;;;;;;;;;5061095;28;20021;-82
2021/08/12 03:45:27;;;;;;;8.75;7.03;;;;;;;;;;5060985;28;20029;-81
2021/08/12 03:47:53;;;;;;;7.70;6.72;;;;;;;;;;5060848;28;20033;-80
2021/08/12 03:50:19;;;;;;;7.82;7.03;;;;;;;;;;5060923;28;20086;-80
2021/08/12 03:52:45;;;;;;;8.68;7.03;;;;;;;;;;5079521;28;20052;-80
2021/08/12 03:55:11;;;;;;;8.60;7.05;;;;;;;;;;5074931;28;20025;-81
2021/08/12 03:57:45;;;;;;;8.23;7.28;;;;;;;;;;5060457;28;20071;-81
2021/08/12 04:00:12;;;;;;;12.60;7.68;;;;;;;;;;5058887;28;20017;-81
2021/08/12 04:02:38;;;;;;;8.32;7.35;;;;;;;;;;5077276;28;20110;-81
2021/08/12 04:05:04;;;;;;;8.07;7.15;;;;;;;;;;5080184;28;20084;-81
2021/08/12 04:07:30;;;;;;;7.75;6.95;;;;;;;;;;5081072;28;20556;-80
2021/08/12 04:09:57;;;;;;;7.05;6.35;;;;;;;;;;5080280;28;20036;-81
2021/08/12 04:12:23;;;;;;;7.05;6.35;;;;;;;;;;5068380;28;20508;-81
2021/08/12 04:14:49;;;;;;;7.45;6.72;;;;;;;;;;5058785;28;20039;-81
2021/08/12 04:17:15;;;;;;;7.50;6.68;;;;;;;;;;5060766;28;20373;-82
2021/08/12 04:19:41;;;;;;;8.13;6.65;;;;;;;;;;5059392;28;20024;-81
2021/08/12 04:22:08;;;;;;;9.07;6.88;;;;;;;;;;5060970;28;20021;-82
2021/08/12 04:24:34;;;;;;;7.95;7.03;;;;;;;;;;5060185;28;20047;-80
2021/08/12 04:27:00;;;;;;;11.15;6.82;;;;;;;;;;5060150;28;20161;-81
2021/08/12 04:29:26;;;;;;;8.23;6.88;;;;;;;;;;5076356;28;20036;-80
2021/08/12 04:31:52;;;;;;;9.05;7.68;;;;;;;;;;5078940;28;20032;-81
2021/08/12 04:34:18;;;;;;;8.77;7.07;;;;;;;;;;5055594;28;20048;-83
2021/08/12 04:36:44;;;;;;;8.77;7.00;;;;;;;;;;5057214;28;20048;-81
2021/08/12 04:39:10;;;;;;;8.75;6.95;;;;;;;;;;5053864;28;20057;-81
2021/08/12 04:41:37;;;;;;;10.18;7.78;;;;;;;;;;5056613;28;20025;-82
2021/08/12 04:44:03;;;;;;;10.25;8.32;;;;;;;;;;5055426;28;20029;-82
2021/08/12 04:46:29;;;;;;;9.73;7.22;;;;;;;;;;5057376;28;20025;-83
2021/08/12 04:48:55;;;;;;;9.35;7.75;;;;;;;;;;5056119;28;20444;-82
2021/08/12 04:51:21;;;;;;;8.63;7.72;;;;;;;;;;5055641;28;20488;-81
2021/08/12 04:53:47;;;;;;;8.05;7.25;;;;;;;;;;5056395;28;20033;-82
2021/08/12 04:56:13;;;;;;;8.63;6.97;;;;;;;;;;5061943;28;20066;-82
2021/08/12 04:58:39;;;;;;;9.68;7.50;;;;;;;;;;5056898;28;20020;-82
2021/08/12 05:01:05;;;;;;;9.20;8.00;;;;;;;;;;5057174;28;20021;-82
2021/08/12 05:03:31;;;;;;;8.90;7.80;;;;;;;;;;5060276;28;20438;-81
2021/08/12 05:06:04;;;;;;;8.60;7.63;;;;;;;;;;5059641;28;20032;-82
2021/08/12 05:08:31;;;;;;;8.25;6.85;;;;;;;;;;5056852;28;20025;-82
2021/08/12 05:10:57;;;;;;;8.88;7.97;;;;;;;;;;5058516;28;20029;-81
2021/08/12 05:13:23;;;;;;;8.82;7.78;;;;;;;;;;5062483;28;20473;-82
2021/08/12 05:15:49;;;;;;;10.38;8.30;;;;;;;;;;5081091;28;20086;-81
2021/08/12 05:18:15;;;;;;;10.85;7.82;;;;;;;;;;5079764;28;20040;-80
2021/08/12 05:20:41;;;;;;;8.57;7.18;;;;;;;;;;5081468;28;20092;-80
2021/08/12 05:23:07;;;;;;;12.50;7.53;;;;;;;;;;5068884;28;20171;-80
2021/08/12 05:25:34;;;;;;;10.75;8.10;;;;;;;;;;5060646;28;20151;-80
2021/08/12 05:28:00;;;;;;;9.85;7.32;;;;;;;;;;5060239;28;20470;-82
2021/08/12 05:30:26;;;;;;;17.13;7.95;;;;;;;;;;5059058;28;20030;-83
2021/08/12 05:32:52;;;;;;;12.50;7.72;;;;;;;;;;5060146;28;20036;-82
2021/08/12 05:35:18;;;;;;;9.85;8.30;;;;;;;;;;5060296;28;20057;-82
2021/08/12 05:37:44;;;;;;;13.68;9.00;;;;;;;;;;5060586;28;20021;-81
2021/08/12 05:40:10;;;;;;;14.65;9.68;;;;;;;;;;5059400;28;20025;-81
2021/08/12 05:42:36;;;;;;;14.32;10.23;;;;;;;;;;5062420;28;20115;-82
2021/08/12 05:45:02;;;;;;;13.25;8.55;;;;;;;;;;5078464;28;20029;-81
2021/08/12 05:47:28;;;;;;;13.43;9.60;;;;;;;;;;5080413;28;20031;-83
2021/08/12 05:49:54;;;;;;;9.93;8.18;;;;;;;;;;5080325;28;20032;-82
2021/08/12 05:52:21;;;;;;;15.45;9.60;;;;;;;;;;5080548;28;20028;-81
2021/08/12 05:54:47;;;;;;;12.05;9.68;;;;;;;;;;5070353;28;20055;-82
2021/08/12 05:57:13;;;;;;;13.65;9.65;;;;;;;;;;5057494;28;20033;-82
2021/08/12 05:59:39;;;;;;;12.23;8.73;;;;;;;;;;5060140;28;20099;-82
2021/08/12 06:02:05;;;;;;;10.40;9.10;;;;;;;;;;5060762;28;20116;-82
2021/08/12 06:04:31;;;;;;;10.32;9.05;;;;;;;;;;5065241;28;20438;-82
2021/08/12 06:06:57;;;;;;;11.65;9.15;;;;;;;;;;5059282;28;20032;-82
2021/08/12 06:09:23;;;;;;;10.25;8.55;;;;;;;;;;5059029;28;20112;-81
2021/08/12 06:11:49;;;;;;;10.38;8.70;;;;;;;;;;5059246;28;20044;-81
2021/08/12 06:14:15;;;;;;;8.60;7.75;;;;;;;;;;5059591;28;20025;-81
2021/08/12 06:16:41;;;;;;;8.40;7.50;;;;;;;;;;5059178;28;20032;-82
2021/08/12 06:19:07;;;;;;;8.68;7.78;;;;;;;;;;5059230;28;20031;-82
2021/08/12 06:21:33;;;;;;;9.00;6.90;;;;;;;;;;5060801;28;20021;-80
2021/08/12 06:23:59;;;;;;;8.07;6.45;;;;;;;;;;5060286;28;20033;-80
2021/08/12 06:26:25;;;;;;;7.93;7.22;;;;;;;;;;5063976;28;20110;-80
2021/08/12 06:28:52;;;;;;;7.80;6.70;;;;;;;;;;5062002;28;20029;-82
2021/08/12 06:31:18;;;;;;;7.25;6.40;;;;;;;;;;5059159;28;20124;-82
2021/08/12 06:33:44;;;;;;;5.82;5.28;;;;;;;;;;5058905;28;20079;-82
2021/08/12 06:36:11;;;;;;;6.60;5.80;;;;;;;;;;5078292;28;20032;-81
2021/08/12 06:38:37;;;;;;;7.05;6.45;;;;;;;;;;5079511;28;20024;-82
2021/08/12 06:41:03;;;;;;;6.90;6.20;;;;;;;;;;5079565;28;20040;-81
2021/08/12 06:43:29;;;;;;;7.03;6.43;;;;;;;;;;5078255;28;20025;-82
2021/08/12 06:45:55;;;;;;;7.50;6.70;;;;;;;;;;5065604;28;20037;-81
2021/08/12 06:48:21;;;;;;;6.15;5.55;;;;;;;;;;5057921;28;20036;-81
2021/08/12 06:50:47;;;;;;;6.68;5.90;;;;;;;;;;5058405;28;20043;-81
2021/08/12 06:53:14;;;;;;;6.30;5.70;;;;;;;;;;5059708;28;20051;-80
2021/08/12 06:55:40;;;;;;;6.60;6.00;;;;;;;;;;5061396;28;20330;-80
2021/08/12 06:58:06;;;;;;;6.20;5.60;;;;;;;;;;5062283;28;20024;-82
2021/08/12 07:00:32;;;;;;;5.57;5.10;;;;;;;;;;5059568;28;20032;-81
2021/08/12 07:02:58;;;;;;;7.65;6.85;;;;;;;;;;5060422;28;20032;-80
2021/08/12 07:05:24;;;;;;;8.68;6.45;;;;;;;;;;5062299;28;20096;-81
2021/08/12 07:07:50;;;;;;;9.48;7.30;;;;;;;;;;5078976;28;20052;-81
2021/08/12 07:10:16;;;;;;;7.10;6.40;;;;;;;;;;5078275;28;20094;-82
2021/08/12 07:12:42;;;;;;;7.50;6.80;;;;;;;;;;5079452;28;20041;-82
2021/08/12 07:15:09;;;;;;;7.30;6.60;;;;;;;;;;5078144;28;20124;-81
2021/08/12 07:17:35;;;;;;;7.10;6.40;;;;;;;;;;5063209;28;20025;-81
2021/08/12 07:20:02;;;;;;;7.07;6.20;;;;;;;;;;5064365;28;20040;-82
2021/08/12 07:22:28;;;;;;;7.68;6.95;;;;;;;;;;5064499;28;20020;-81
2021/08/12 07:24:54;;;;;;;7.60;6.80;;;;;;;;;;5065940;28;20025;-81
2021/08/12 07:27:20;;;;;;;7.65;6.85;;;;;;;;;;5060227;28;20027;-81
2021/08/12 07:29:46;;;;;;;7.82;7.10;;;;;;;;;;5060273;28;20044;-82
2021/08/12 07:32:12;;;;;;;8.43;6.88;;;;;;;;;;5058447;28;20545;-81
2021/08/12 07:34:38;;;;;;;7.47;6.72;;;;;;;;;;5057773;28;20029;-81
2021/08/12 07:37:05;;;;;;;8.93;6.22;;;;;;;;;;5069443;28;20392;-82
2021/08/12 07:39:31;;;;;;;8.38;6.80;;;;;;;;;;5079328;28;20314;-82
2021/08/12 07:41:57;;;;;;;7.45;6.82;;;;;;;;;;5077395;28;20301;-81
2021/08/12 07:44:23;;;;;;;7.15;6.45;;;;;;;;;;5077309;28;20028;-82
2021/08/12 07:46:49;;;;;;;7.10;6.43;;;;;;;;;;5078759;28;20028;-82
2021/08/12 07:49:15;;;;;;;6.78;5.90;;;;;;;;;;5079604;28;20298;-83
2021/08/12 07:51:41;;;;;;;8.15;6.88;;;;;;;;;;5079205;28;20029;-82
2021/08/12 07:54:07;;;;;;;7.45;6.07;;;;;;;;;;5078302;28;20136;-83
2021/08/12 07:56:33;;;;;;;6.68;5.45;;;;;;;;;;5059141;28;20025;-83
2021/08/12 07:58:59;;;;;;;7.00;6.30;;;;;;;;;;5057475;28;20044;-83
2021/08/12 08:01:26;;;;;;;8.07;6.50;;;;;;;;;;5058702;28;20039;-83
2021/08/12 08:03:53;;;;;;;7.18;6.15;;;;;;;;;;5058829;28;20169;-82
2021/08/12 08:06:20;;;;;;;7.88;6.60;;;;;;;;;;5057108;28;20047;-83
2021/08/12 08:08:46;;;;;;;8.48;7.05;;;;;;;;;;5072811;28;20181;-84
2021/08/12 08:11:14;;;;;;;10.45;7.32;;;;;;;;;;5077992;28;20069;-83
2021/08/12 08:13:41;;;;;;;6.93;6.22;;;;;;;;;;5079392;28;20031;-82
2021/08/12 08:16:07;;;;;;;7.05;6.45;;;;;;;;;;5078968;28;20091;-79
2021/08/12 08:18:33;;;;;;;7.15;6.45;;;;;;;;;;5084388;28;20033;-80
2021/08/12 08:20:59;;;;;;;7.60;6.80;;;;;;;;;;5075858;28;20108;-80
2021/08/12 08:23:25;;;;;;;9.88;7.05;;;;;;;;;;5057817;28;20092;-80
2021/08/12 08:25:52;;;;;;;7.32;6.63;;;;;;;;;;5058511;28;20025;-80
2021/08/12 08:28:18;;;;;;;8.70;7.07;;;;;;;;;;5057124;28;20025;-80
2021/08/12 08:30:44;;;;;;;10.05;7.13;;;;;;;;;;5056477;28;20053;-80
2021/08/12 08:33:11;;;;;;;7.28;6.55;;;;;;;;;;5056662;28;20028;-81
2021/08/12 08:35:37;;;;;;;6.88;6.05;;;;;;;;;;5060808;28;20013;-81
2021/08/12 08:38:04;;;;;;;7.57;6.63;;;;;;;;;;5057835;28;20044;-81
2021/08/12 08:40:30;;;;;;;8.10;6.70;;;;;;;;;;5057903;28;20454;-82
2021/08/12 08:42:56;;;;;;;8.82;6.47;;;;;;;;;;5058734;28;20020;-81
2021/08/12 08:45:26;;;;;;;8.75;6.40;;;;;;;;;;5056420;28;20075;-80
2021/08/12 08:47:53;;;;;;;7.45;6.75;;;;;;;;;;5057299;28;20494;-81
2021/08/12 08:50:20;;;;;;;7.43;6.70;;;;;;;;;;5067864;28;20085;-82
2021/08/12 08:52:47;;;;;;;7.70;6.95;;;;;;;;;;5078460;28;20035;-83
2021/08/12 08:55:20;;;;;;;7.25;6.55;;;;;;;;;;5072334;28;20477;-82
2021/08/12 08:57:48;;;;;;;6.85;6.15;;;;;;;;;;5057254;28;20017;-81
2021/08/12 09:00:16;;;;;;;7.90;6.97;;;;;;;;;;5068768;28;20111;-82
2021/08/12 09:02:44;;;;;;;9.32;7.30;;;;;;;;;;5077703;28;20195;-81
2021/08/12 09:05:10;;;;;;;7.68;6.97;;;;;;;;;;5077627;28;20072;-81
2021/08/12 09:07:37;;;;;;;7.63;6.82;;;;;;;;;;5077143;28;20029;-81
2021/08/12 09:10:04;;;;;;;8.02;6.47;;;;;;;;;;5076773;28;20159;-82
2021/08/12 09:12:31;;;;;;;10.27;6.60;;;;;;;;;;5077133;28;20024;-82
2021/08/12 09:15:04;;;;;;;7.60;6.65;;;;;;;;;;5077824;28;20020;-81
2021/08/12 09:17:30;;;;;;;11.32;7.72;;;;;;;;;;5077588;28;20108;-81
2021/08/12 09:20:03;;;;;;;7.03;6.18;;;;;;;;;;5074564;28;20130;-82
2021/08/12 09:22:30;;;;;;;8.77;7.28;;;;;;;;;;5058135;28;20017;-81
2021/08/12 09:24:56;;;;;;;7.57;6.63;;;;;;;;;;5058463;28;20021;-82
2021/08/12 09:27:23;;;;;;;6.72;6.13;;;;;;;;;;5057968;28;20017;-83
2021/08/12 09:29:49;;;;;;;7.28;6.55;;;;;;;;;;5057237;28;20017;-82
2021/08/12 09:32:16;;;;;;;8.35;6.88;;;;;;;;;;5077309;28;20047;-81
2021/08/12 09:34:44;;;;;;;7.03;6.43;;;;;;;;;;5076119;28;20030;-81
2021/08/12 09:37:10;;;;;;;7.53;6.82;;;;;;;;;;5077663;28;20024;-82
2021/08/12 09:39:37;;;;;;;9.50;6.57;;;;;;;;;;5076958;28;20126;-83
2021/08/12 09:42:05;;;;;;;10.60;7.40;;;;;;;;;;5078015;28;20066;-81
2021/08/12 09:44:40;;;;;;;8.27;7.20;;;;;;;;;;5082631;28;20017;-83
2021/08/12 09:47:06;;;;;;;8.88;7.65;;;;;;;;;;5082139;28;20088;-83
2021/08/12 09:49:51;;;;;;;8.65;6.68;;;;;;;;;;5076189;28;20077;-83
2021/08/12 09:52:21;;;;;;;8.98;7.68;;;;;;;;;;5063976;28;20089;-82
2021/08/12 09:54:50;;;;;;;8.02;7.32;;;;;;;;;;5057141;28;20047;-83
2021/08/12 09:57:17;;;;;;;11.02;7.38;;;;;;;;;;5061078;28;20099;-83
2021/08/12 09:59:47;;;;;;;7.55;6.85;;;;;;;;;;5061645;28;20060;-80
2021/08/12 10:02:13;;;;;;;9.32;7.25;;;;;;;;;;5067149;28;20025;-81
2021/08/12 10:04:40;;;;;;;7.78;7.05;;;;;;;;;;5060582;28;20033;-80
2021/08/12 10:07:06;;;;;;;8.93;7.10;;;;;;;;;;5063459;28;20032;-80
2021/08/12 10:09:41;;;;;;;8.15;6.93;;;;;;;;;;5062032;28;20051;-81
2021/08/12 10:12:09;;;;;;;8.68;7.05;;;;;;;;;;5062080;28;20020;-80
2021/08/12 10:14:35;;;;;;;7.72;7.03;;;;;;;;;;5061962;28;20090;-83
2021/08/12 10:17:03;;;;;;;10.82;7.70;;;;;;;;;;5060508;28;20067;-83
2021/08/12 10:19:30;;;;;;;9.98;6.88;;;;;;;;;;5061229;28;20024;-83
2021/08/12 10:21:56;;;;;;;8.05;6.90;;;;;;;;;;5059860;28;20116;-81
2021/08/12 10:24:25;;;;;;;7.43;6.72;;;;;;;;;;5064112;28;20499;-80
2021/08/12 10:26:52;;;;;;;7.97;7.05;;;;;;;;;;5061179;28;20036;-79
2021/08/12 10:29:23;;;;;;;6.93;6.22;;;;;;;;;;5063435;28;20025;-81
2021/08/12 10:31:52;;;;;;;;;;;;;;;;;;5061308;28;20179;-82
2021/08/12 10:34:21;;;;;;;6.75;6.13;;;;;;;;;;5059805;28;19913;-81
2021/08/12 10:36:53;;;;;;;7.88;7.07;;;;;;;;;;5063178;28;20032;-82
2021/08/12 10:39:27;;;;;;;7.47;6.63;;;;;;;;;;5069192;28;20036;-80
2021/08/12 10:47:03;;;;;;;7.97;7.28;;;;;;;;;;5056870;28;20103;-86
2021/08/12 11:05:16;;;;;;;8.25;7.45;;;;;;;;;;5095045;28;20044;-85
2021/08/12 11:11:03;;;;;;;8.50;7.60;;;;;;;;;;5061345;28;20071;-87
2021/08/12 11:13:34;;;;;;;9.25;8.32;;;;;;;;;;5080459;28;20028;-86
2021/08/12 11:16:00;;;;;;;7.30;6.70;;;;;;;;;;5077231;28;20058;-84
2021/08/12 11:18:52;;;;;;;10.18;7.30;;;;;;;;;;5091159;28;20025;-85
2021/08/12 11:21:48;;;;;;;7.28;6.57;;;;;;;;;;5092192;28;20076;-86
2021/08/12 11:24:45;;;;;;;8.23;6.80;;;;;;;;;;5034298;28;20092;-87
2021/08/12 11:27:45;;;;;;;7.63;6.82;;;;;;;;;;5031703;28;20032;-83
2021/08/12 11:30:40;;;;;;;8.30;6.40;;;;;;;;;;5030555;28;20026;-84
2021/08/12 11:33:25;;;;;;;7.22;6.55;;;;;;;;;;5025967;28;20049;-84
2021/08/12 11:36:19;;;;;;;7.75;7.05;;;;;;;;;;5064068;28;20084;-86
2021/08/12 11:38:49;;;;;;;9.00;7.07;;;;;;;;;;5089149;28;20059;-83
2021/08/12 11:41:35;;;;;;;6.38;5.78;;;;;;;;;;5076503;28;20028;-86
2021/08/12 11:44:18;;;;;;;7.15;6.53;;;;;;;;;;5088922;28;20012;-86
2021/08/12 11:46:45;;;;;;;7.68;6.97;;;;;;;;;;5058375;28;20381;-83
2021/08/12 11:49:15;;;;;;;8.43;7.13;;;;;;;;;;5057349;28;20100;-84
2021/08/12 11:51:42;;;;;;;7.40;6.63;;;;;;;;;;5055319;28;20032;-83
2021/08/12 11:54:11;;;;;;;8.50;7.70;;;;;;;;;;5072739;28;20037;-84
2021/08/12 11:56:38;;;;;;;8.07;6.47;;;;;;;;;;5062367;28;20005;-85
2021/08/12 11:59:05;;;;;;;7.68;6.97;;;;;;;;;;5070647;28;20035;-84
2021/08/12 12:01:35;;;;;;;7.60;6.85;;;;;;;;;;5069390;28;20025;-84
2021/08/12 12:04:02;;;;;;;8.18;6.55;;;;;;;;;;5049272;28;20265;-84
2021/08/12 12:06:49;;;;;;;7.43;6.72;;;;;;;;;;5047269;28;20094;-85
2021/08/12 12:09:26;;;;;;;7.93;7.22;;;;;;;;;;5049424;28;20094;-84
2021/08/12 12:11:54;;;;;;;7.53;6.82;;;;;;;;;;5048463;28;20033;-85
2021/08/12 12:14:31;;;;;;;7.68;6.88;;;;;;;;;;5048058;28;20040;-85
2021/08/12 12:17:06;;;;;;;7.97;6.45;;;;;;;;;;5047908;28;20025;-85
2021/08/12 12:19:32;;;;;;;6.55;6.05;;;;;;;;;;5058344;28;20060;-85
2021/08/12 12:21:58;;;;;;;7.07;6.47;;;;;;;;;;5068626;28;20104;-85
2021/08/12 12:24:25;;;;;;;7.30;6.57;;;;;;;;;;5069207;28;20021;-85
2021/08/12 12:26:57;;;;;;;6.57;5.95;;;;;;;;;;5058279;28;20025;-85
2021/08/12 12:29:24;;;;;;;7.65;6.60;;;;;;;;;;5047813;28;20081;-85
2021/08/12 12:31:59;;;;;;;6.80;6.25;;;;;;;;;;5047156;28;20037;-84
2021/08/12 12:34:25;;;;;;;8.65;6.63;;;;;;;;;;5046297;28;20022;-84
2021/08/12 12:36:52;;;;;;;6.78;6.18;;;;;;;;;;5044212;28;20049;-85
2021/08/12 12:39:19;;;;;;;7.25;6.55;;;;;;;;;;5047029;28;20084;-84
2021/08/12 12:41:45;;;;;;;6.95;6.30;;;;;;;;;;5044653;28;20032;-84
2021/08/12 12:44:12;;;;;;;7.20;6.50;;;;;;;;;;5044168;28;20018;-84
2021/08/12 12:46:38;;;;;;;8.20;7.40;;;;;;;;;;5048885;28;20030;-84
2021/08/12 12:49:27;;;;;;;8.90;7.05;;;;;;;;;;5064418;28;20497;-85
2021/08/12 12:52:04;;;;;;;7.97;6.93;;;;;;;;;;5070100;28;20021;-85
2021/08/12 12:54:31;;;;;;;7.60;6.90;;;;;;;;;;5069112;28;20041;-84
2021/08/12 12:56:57;;;;;;;9.80;7.45;;;;;;;;;;5051487;28;20021;-85
2021/08/12 12:59:23;;;;;;;10.27;7.57;;;;;;;;;;5044631;28;20121;-84
2021/08/12 13:01:59;;;;;;;7.93;6.60;;;;;;;;;;5045068;28;20021;-85
2021/08/12 13:04:26;;;;;;;7.35;6.70;;;;;;;;;;5045338;28;20091;-86
2021/08/12 13:06:52;;;;;;;8.18;7.32;;;;;;;;;;5029205;28;20021;-84
2021/08/12 13:09:38;;;;;;;8.80;7.90;;;;;;;;;;5068776;28;20055;-85
2021/08/12 13:12:23;;;;;;;7.70;6.85;;;;;;;;;;5051973;28;20029;-84
2021/08/12 13:14:49;;;;;;;9.73;6.88;;;;;;;;;;5050587;28;20033;-83
2021/08/12 13:17:30;;;;;;;8.93;7.28;;;;;;;;;;5068055;28;20021;-84
2021/08/12 13:20:09;;;;;;;8.73;7.28;;;;;;;;;;5069012;28;20036;-83
2021/08/12 13:22:42;;;;;;;8.10;7.30;;;;;;;;;;5069191;28;20032;-84
2021/08/12 13:25:28;;;;;;;8.93;7.32;;;;;;;;;;5066855;28;20025;-84
2021/08/12 13:27:55;;;;;;;7.90;7.13;;;;;;;;;;5057427;28;20036;-83
2021/08/12 13:30:29;;;;;;;7.78;7.07;;;;;;;;;;5046240;28;20033;-85
2021/08/12 13:32:55;;;;;;;7.45;6.60;;;;;;;;;;5033077;28;20029;-85
2021/08/12 13:35:22;;;;;;;7.50;6.78;;;;;;;;;;5042026;28;20048;-84
2021/08/12 13:37:48;;;;;;;7.43;6.68;;;;;;;;;;5071034;28;20016;-84
2021/08/12 13:40:14;;;;;;;6.72;6.03;;;;;;;;;;5052523;28;20520;-84
2021/08/12 13:42:40;;;;;;;7.50;6.80;;;;;;;;;;5071285;28;20021;-84
2021/08/12 13:45:06;;;;;;;7.78;6.97;;;;;;;;;;5071851;28;20056;-83
2021/08/12 13:47:32;;;;;;;7.15;6.50;;;;;;;;;;5058362;28;20058;-84
2021/08/12 13:49:58;;;;;;;9.05;7.30;;;;;;;;;;5037721;28;20028;-84
2021/08/12 13:52:25;;;;;;;7.85;7.15;;;;;;;;;;5054761;28;20032;-84
2021/08/12 13:54:51;;;;;;;7.60;6.97;;;;;;;;;;5038675;28;20033;-84
2021/08/12 13:57:17;;;;;;;8.65;6.70;;;;;;;;;;5061911;28;20127;-84
2021/08/12 13:59:43;;;;;;;7.78;7.03;;;;;;;;;;5057182;28;20056;-85
2021/08/12 14:02:09;;;;;;;7.88;6.80;;;;;;;;;;5033849;28;20026;-85
2021/08/12 14:04:35;;;;;;;8.20;7.15;;;;;;;;;;5037942;28;20048;-84
2021/08/12 14:07:01;;;;;;;8.40;7.45;;;;;;;;;;5063179;28;20041;-84
2021/08/12 14:09:28;;;;;;;8.68;7.05;;;;;;;;;;5051699;28;20089;-85
2021/08/12 14:11:54;;;;;;;7.13;6.53;;;;;;;;;;5054759;28;20032;-84
2021/08/12 14:14:21;;;;;;;7.63;6.93;;;;;;;;;;5070322;28;20039;-84
2021/08/12 14:16:47;;;;;;;8.65;7.85;;;;;;;;;;5045005;28;20017;-84
2021/08/12 14:19:13;;;;;;;8.63;7.43;;;;;;;;;;5049288;28;20022;-84
2021/08/12 14:21:39;;;;;;;8.13;7.35;;;;;;;;;;5049985;28;20068;-84
2021/08/12 14:24:06;;;;;;;7.43;6.82;;;;;;;;;;5050589;28;20032;-82
2021/08/12 14:26:32;;;;;;;8.02;7.32;;;;;;;;;;5038321;28;20025;-84
2021/08/12 14:28:59;;;;;;;7.50;6.80;;;;;;;;;;5048574;28;20028;-84
2021/08/12 14:31:26;;;;;;;7.43;6.43;;;;;;;;;;5070272;28;20021;-84
2021/08/12 14:33:53;;;;;;;7.28;6.57;;;;;;;;;;5068580;28;20029;-84
2021/08/12 14:36:19;;;;;;;7.38;6.60;;;;;;;;;;5052074;28;20029;-84
2021/08/12 14:38:46;;;;;;;7.28;6.68;;;;;;;;;;5052026;28;20045;-85
2021/08/12 14:41:12;;;;;;;8.05;7.30;;;;;;;;;;5030976;28;20545;-83
2021/08/12 14:43:39;;;;;;;7.50;6.90;;;;;;;;;;5050597;28;20029;-84
2021/08/12 14:46:05;;;;;;;9.52;7.35;;;;;;;;;;5049810;28;20078;-83
2021/08/12 14:48:32;;;;;;;7.68;6.97;;;;;;;;;;5055390;28;20013;-84
2021/08/12 14:50:59;;;;;;;8.90;8.10;;;;;;;;;;5034831;28;20409;-83
2021/08/12 14:53:25;;;;;;;7.32;6.63;;;;;;;;;;5027422;28;20064;-84
2021/08/12 14:55:53;;;;;;;6.90;6.30;;;;;;;;;;5037379;28;20021;-84
2021/08/12 14:58:20;;;;;;;7.57;6.82;;;;;;;;;;5041380;28;20025;-84
2021/08/12 15:00:46;;;;;;;7.38;6.50;;;;;;;;;;5049542;28;20581;-84
2021/08/12 15:03:13;;;;;;;7.07;6.47;;;;;;;;;;5048475;28;20036;-83
2021/08/12 15:05:39;;;;;;;7.93;7.10;;;;;;;;;;5049371;28;20064;-85
2021/08/12 15:08:06;;;;;;;7.20;6.50;;;;;;;;;;5051525;28;20037;-84
2021/08/12 15:10:33;;;;;;;8.02;7.32;;;;;;;;;;5050734;28;20040;-85
2021/08/12 15:13:00;;;;;;;7.50;6.70;;;;;;;;;;5051324;28;20029;-84